sensor_id;sensor_type;location;lat;lon;timestamp;pressure;altitude;pressure_sealevel;temperature;humidity
20628;BME280;10473;42.734;24.258;2022-10-30T00:01:37;92583.63;;;10.50;59.88
20628;BME280;10473;42.734;24.258;2022-10-30T00:04:05;92579.78;;;10.47;59.86
20628;BME280;10473;42.734;24.258;2022-10-30T00:06:33;92580.69;;;10.55;59.16
20628;BME280;10473;42.734;24.258;2022-10-30T00:09:00;92580.69;;;10.55;59.14
20628;BME280;10473;42.734;24.258;2022-10-30T00:11:30;92580.56;;;10.13;60.53
20628;BME280;10473;42.734;24.258;2022-10-30T00:13:57;92574.13;;;10.30;60.05
20628;BME280;10473;42.734;24.258;2022-10-30T00:16:25;92577.34;;;10.39;59.28
20628;BME280;10473;42.734;24.258;2022-10-30T00:18:53;92588.00;;;10.42;59.57
20628;BME280;10473;42.734;24.258;2022-10-30T00:21:21;92578.66;;;10.29;60.08
20628;BME280;10473;42.734;24.258;2022-10-30T00:23:50;92568.66;;;9.73;61.56
20628;BME280;10473;42.734;24.258;2022-10-30T00:26:20;92580.97;;;10.00;61.36
20628;BME280;10473;42.734;24.258;2022-10-30T00:28:53;92588.34;;;10.06;60.63
20628;BME280;10473;42.734;24.258;2022-10-30T00:31:23;92578.25;;;10.12;60.66
20628;BME280;10473;42.734;24.258;2022-10-30T00:33:52;92567.50;;;10.05;60.42
20628;BME280;10473;42.734;24.258;2022-10-30T00:36:22;92571.00;;;10.09;60.54
20628;BME280;10473;42.734;24.258;2022-10-30T00:38:50;92577.69;;;9.87;61.70
20628;BME280;10473;42.734;24.258;2022-10-30T00:41:21;92573.31;;;9.95;61.22
20628;BME280;10473;42.734;24.258;2022-10-30T00:43:50;92561.34;;;10.01;60.83
20628;BME280;10473;42.734;24.258;2022-10-30T00:46:23;92561.34;;;10.01;60.93
20628;BME280;10473;42.734;24.258;2022-10-30T00:48:56;92548.38;;;9.96;61.07
20628;BME280;10473;42.734;24.258;2022-10-30T00:51:27;92557.00;;;10.08;60.52
20628;BME280;10473;42.734;24.258;2022-10-30T00:53:58;92552.47;;;10.09;60.73
20628;BME280;10473;42.734;24.258;2022-10-30T00:56:27;92546.06;;;9.94;60.93
20628;BME280;10473;42.734;24.258;2022-10-30T00:59:00;92553.66;;;10.11;60.98
20628;BME280;10473;42.734;24.258;2022-10-30T01:01:33;92547.84;;;9.25;63.96
20628;BME280;10473;42.734;24.258;2022-10-30T01:04:05;92538.03;;;9.56;63.21
20628;BME280;10473;42.734;24.258;2022-10-30T01:06:35;92537.16;;;9.68;62.39
20628;BME280;10473;42.734;24.258;2022-10-30T01:09:05;92538.91;;;9.79;62.41
20628;BME280;10473;42.734;24.258;2022-10-30T01:11:33;92538.69;;;9.69;62.56
20628;BME280;10473;42.734;24.258;2022-10-30T01:14:05;92538.16;;;9.79;62.63
20628;BME280;10473;42.734;24.258;2022-10-30T01:16:49;92529.97;;;9.84;61.54
20628;BME280;10473;42.734;24.258;2022-10-30T01:19:34;92523.03;;;9.79;61.35
20628;BME280;10473;42.734;24.258;2022-10-30T01:22:18;92516.56;;;9.77;61.94
20628;BME280;10473;42.734;24.258;2022-10-30T01:25:00;92514.75;;;9.81;61.49
20628;BME280;10473;42.734;24.258;2022-10-30T01:27:38;92513.22;;;9.80;61.69
20628;BME280;10473;42.734;24.258;2022-10-30T01:30:15;92510.31;;;9.85;61.48
20628;BME280;10473;42.734;24.258;2022-10-30T01:33:03;92512.56;;;9.83;61.73
20628;BME280;10473;42.734;24.258;2022-10-30T01:35:38;92498.75;;;9.74;61.70
20628;BME280;10473;42.734;24.258;2022-10-30T01:38:12;92522.28;;;9.79;62.08
20628;BME280;10473;42.734;24.258;2022-10-30T01:40:44;92506.94;;;9.69;62.28
20628;BME280;10473;42.734;24.258;2022-10-30T01:43:12;92510.00;;;9.71;62.42
20628;BME280;10473;42.734;24.258;2022-10-30T01:45:51;92512.56;;;9.83;61.32
20628;BME280;10473;42.734;24.258;2022-10-30T01:51:42;92505.56;;;9.75;61.33
20628;BME280;10473;42.734;24.258;2022-10-30T01:54:20;92499.19;;;9.60;61.66
20628;BME280;10473;42.734;24.258;2022-10-30T01:57:01;92496.94;;;9.78;61.23
20628;BME280;10473;42.734;24.258;2022-10-30T01:59:35;92491.75;;;9.66;61.90
20628;BME280;10473;42.734;24.258;2022-10-30T02:02:06;92488.84;;;9.71;61.85
20628;BME280;10473;42.734;24.258;2022-10-30T02:04:36;92466.81;;;9.67;61.17
20628;BME280;10473;42.734;24.258;2022-10-30T02:07:05;92504.38;;;9.57;62.55
20628;BME280;10473;42.734;24.258;2022-10-30T02:09:39;92497.22;;;9.73;61.95
20628;BME280;10473;42.734;24.258;2022-10-30T02:12:08;92502.19;;;9.43;63.48
20628;BME280;10473;42.734;24.258;2022-10-30T02:14:39;92477.94;;;9.57;62.24
20628;BME280;10473;42.734;24.258;2022-10-30T02:17:09;92495.91;;;9.67;62.39
20628;BME280;10473;42.734;24.258;2022-10-30T02:19:39;92481.94;;;9.66;61.96
20628;BME280;10473;42.734;24.258;2022-10-30T02:22:09;92495.84;;;9.63;61.79
20628;BME280;10473;42.734;24.258;2022-10-30T02:24:38;92499.22;;;9.29;63.75
20628;BME280;10473;42.734;24.258;2022-10-30T02:27:06;92483.19;;;9.22;64.00
20628;BME280;10473;42.734;24.258;2022-10-30T02:29:34;92491.59;;;9.43;62.94
20628;BME280;10473;42.734;24.258;2022-10-30T02:32:02;92494.06;;;9.52;62.42
20628;BME280;10473;42.734;24.258;2022-10-30T02:34:30;92493.31;;;9.36;63.54
20628;BME280;10473;42.734;24.258;2022-10-30T02:36:58;92493.31;;;9.36;63.66
20628;BME280;10473;42.734;24.258;2022-10-30T02:39:28;92494.66;;;9.45;62.97
20628;BME280;10473;42.734;24.258;2022-10-30T02:41:56;92494.09;;;9.21;64.39
20628;BME280;10473;42.734;24.258;2022-10-30T02:44:23;92481.47;;;9.30;64.33
20628;BME280;10473;42.734;24.258;2022-10-30T02:46:51;92493.84;;;9.41;63.89
20628;BME280;10473;42.734;24.258;2022-10-30T02:49:21;92487.09;;;9.44;64.41
20628;BME280;10473;42.734;24.258;2022-10-30T02:51:50;92476.59;;;9.32;65.42
20628;BME280;10473;42.734;24.258;2022-10-30T02:54:18;92483.19;;;9.22;65.86
20628;BME280;10473;42.734;24.258;2022-10-30T02:56:50;92482.06;;;9.39;65.23
20628;BME280;10473;42.734;24.258;2022-10-30T02:59:18;92479.50;;;8.96;66.92
20628;BME280;10473;42.734;24.258;2022-10-30T03:01:48;92462.84;;;8.64;67.64
20628;BME280;10473;42.734;24.258;2022-10-30T03:04:16;92478.66;;;9.07;65.45
20628;BME280;10473;42.734;24.258;2022-10-30T03:06:43;92490.25;;;9.03;66.24
20628;BME280;10473;42.734;24.258;2022-10-30T03:09:11;92485.16;;;9.10;66.31
20628;BME280;10473;42.734;24.258;2022-10-30T03:11:39;92487.94;;;9.17;65.49
20628;BME280;10473;42.734;24.258;2022-10-30T03:14:08;92499.78;;;8.92;66.14
20628;BME280;10473;42.734;24.258;2022-10-30T03:16:37;92494.59;;;8.95;66.75
20628;BME280;10473;42.734;24.258;2022-10-30T03:19:05;92494.34;;;9.00;66.02
20628;BME280;10473;42.734;24.258;2022-10-30T03:21:35;92504.28;;;8.91;66.85
20628;BME280;10473;42.734;24.258;2022-10-30T03:24:03;92492.97;;;8.91;66.45
20628;BME280;10473;42.734;24.258;2022-10-30T03:26:32;92491.44;;;8.90;66.48
20628;BME280;10473;42.734;24.258;2022-10-30T03:29:04;92490.78;;;9.08;66.01
20628;BME280;10473;42.734;24.258;2022-10-30T03:31:34;92488.34;;;8.88;66.86
20628;BME280;10473;42.734;24.258;2022-10-30T03:34:12;92492.03;;;8.40;69.05
20628;BME280;10473;42.734;24.258;2022-10-30T03:36:42;92493.97;;;8.71;68.25
20628;BME280;10473;42.734;24.258;2022-10-30T03:39:10;92488.31;;;8.57;69.34
20628;BME280;10473;42.734;24.258;2022-10-30T03:41:41;92495.91;;;8.74;67.61
20628;BME280;10473;42.734;24.258;2022-10-30T03:44:09;92498.19;;;8.87;66.96
20628;BME280;10473;42.734;24.258;2022-10-30T03:46:39;92497.47;;;8.90;67.55
20628;BME280;10473;42.734;24.258;2022-10-30T03:49:20;92492.28;;;8.94;66.97
20628;BME280;10473;42.734;24.258;2022-10-30T03:51:48;92498.44;;;8.98;66.58
20628;BME280;10473;42.734;24.258;2022-10-30T03:54:15;92503.56;;;9.06;66.71
20628;BME280;10473;42.734;24.258;2022-10-30T03:56:43;92499.47;;;8.93;67.83
20628;BME280;10473;42.734;24.258;2022-10-30T03:59:14;92501.69;;;9.07;67.02
20628;BME280;10473;42.734;24.258;2022-10-30T04:01:51;92492.13;;;9.18;66.54
20628;BME280;10473;42.734;24.258;2022-10-30T04:04:19;92495.88;;;9.17;66.41
20628;BME280;10473;42.734;24.258;2022-10-30T04:06:47;92492.13;;;9.18;66.46
20628;BME280;10473;42.734;24.258;2022-10-30T04:09:15;92488.41;;;9.19;66.06
20628;BME280;10473;42.734;24.258;2022-10-30T04:11:43;92482.91;;;9.12;66.57
20628;BME280;10473;42.734;24.258;2022-10-30T04:14:11;92487.78;;;9.10;66.99
20628;BME280;10473;42.734;24.258;2022-10-30T04:16:39;92500.50;;;9.20;65.88
20628;BME280;10473;42.734;24.258;2022-10-30T04:19:08;92486.00;;;9.14;66.13
20628;BME280;10473;42.734;24.258;2022-10-30T04:21:36;92493.94;;;9.14;66.51
20628;BME280;10473;42.734;24.258;2022-10-30T04:24:05;92495.03;;;9.13;66.15
20628;BME280;10473;42.734;24.258;2022-10-30T04:26:34;92492.22;;;9.21;65.62
20628;BME280;10473;42.734;24.258;2022-10-30T04:29:02;92484.63;;;9.20;65.73
20628;BME280;10473;42.734;24.258;2022-10-30T04:31:30;92487.94;;;9.17;65.84
20628;BME280;10473;42.734;24.258;2022-10-30T04:33:58;92492.22;;;9.21;65.57
20628;BME280;10473;42.734;24.258;2022-10-30T04:36:28;92484.63;;;9.20;65.82
20628;BME280;10473;42.734;24.258;2022-10-30T04:39:00;92469.09;;;9.03;66.27
20628;BME280;10473;42.734;24.258;2022-10-30T04:41:27;92490.69;;;9.20;65.74
20628;BME280;10473;42.734;24.258;2022-10-30T04:44:02;92486.59;;;9.23;65.83
20628;BME280;10473;42.734;24.258;2022-10-30T04:46:31;92484.28;;;9.06;66.96
20628;BME280;10473;42.734;24.258;2022-10-30T04:49:07;92488.72;;;9.02;67.21
20628;BME280;10473;42.734;24.258;2022-10-30T04:51:36;92490.44;;;9.10;66.40
20628;BME280;10473;42.734;24.258;2022-10-30T04:54:05;92484.22;;;9.02;66.73
20628;BME280;10473;42.734;24.258;2022-10-30T04:56:34;92478.94;;;9.02;66.40
20628;BME280;10473;42.734;24.258;2022-10-30T04:59:02;92484.81;;;9.11;65.99
20628;BME280;10473;42.734;24.258;2022-10-30T05:01:30;92493.00;;;9.06;66.75
20628;BME280;10473;42.734;24.258;2022-10-30T05:03:58;92493.09;;;9.10;66.33
20628;BME280;10473;42.734;24.258;2022-10-30T05:06:29;92502.03;;;9.21;65.96
20628;BME280;10473;42.734;24.258;2022-10-30T05:08:59;92496.59;;;9.14;66.63
20628;BME280;10473;42.734;24.258;2022-10-30T05:11:36;92503.22;;;9.23;66.73
20628;BME280;10473;42.734;24.258;2022-10-30T05:14:04;92505.63;;;9.44;65.50
20628;BME280;10473;42.734;24.258;2022-10-30T05:16:32;92502.78;;;9.52;65.61
20628;BME280;10473;42.734;24.258;2022-10-30T05:19:02;92501.47;;;9.62;65.96
20628;BME280;10473;42.734;24.258;2022-10-30T05:21:32;92508.88;;;9.87;65.59
20628;BME280;10473;42.734;24.258;2022-10-30T05:24:01;92513.19;;;10.11;65.96
20628;BME280;10473;42.734;24.258;2022-10-30T05:26:37;92519.28;;;10.30;65.07
20628;BME280;10473;42.734;24.258;2022-10-30T05:29:05;92519.53;;;10.63;64.71
20628;BME280;10473;42.734;24.258;2022-10-30T05:31:33;92507.16;;;10.90;63.74
20628;BME280;10473;42.734;24.258;2022-10-30T05:34:28;92493.72;;;11.21;63.46
20628;BME280;10473;42.734;24.258;2022-10-30T05:36:56;92518.31;;;11.63;63.17
20628;BME280;10473;42.734;24.258;2022-10-30T05:39:26;92518.50;;;12.03;61.58
20628;BME280;10473;42.734;24.258;2022-10-30T05:41:55;92514.41;;;12.35;60.82
20628;BME280;10473;42.734;24.258;2022-10-30T05:44:33;92524.41;;;12.78;60.74
20628;BME280;10473;42.734;24.258;2022-10-30T05:47:02;92516.53;;;13.18;58.81
20628;BME280;10473;42.734;24.258;2022-10-30T05:49:33;92517.25;;;13.55;57.02
20628;BME280;10473;42.734;24.258;2022-10-30T05:52:03;92522.84;;;13.90;57.12
20628;BME280;10473;42.734;24.258;2022-10-30T05:54:36;92526.22;;;14.30;56.97
20628;BME280;10473;42.734;24.258;2022-10-30T05:57:16;92515.63;;;14.41;55.53
20628;BME280;10473;42.734;24.258;2022-10-30T05:59:44;92515.38;;;14.74;54.82
20628;BME280;10473;42.734;24.258;2022-10-30T06:02:13;92514.38;;;15.17;53.32
20628;BME280;10473;42.734;24.258;2022-10-30T06:04:41;92524.00;;;15.53;52.04
20628;BME280;10473;42.734;24.258;2022-10-30T06:07:12;92526.72;;;15.77;51.41
20628;BME280;10473;42.734;24.258;2022-10-30T06:09:41;92524.41;;;16.07;50.10
20628;BME280;10473;42.734;24.258;2022-10-30T06:12:38;92522.88;;;16.24;49.30
20628;BME280;10473;42.734;24.258;2022-10-30T06:15:29;92514.88;;;16.03;49.34
20628;BME280;10473;42.734;24.258;2022-10-30T06:17:57;92529.34;;;16.54;49.20
20628;BME280;10473;42.734;24.258;2022-10-30T06:20:43;92521.59;;;16.88;49.33
20628;BME280;10473;42.734;24.258;2022-10-30T06:23:38;92532.94;;;17.20;48.61
20628;BME280;10473;42.734;24.258;2022-10-30T06:26:28;92516.84;;;17.27;47.57
20628;BME280;10473;42.734;24.258;2022-10-30T06:29:00;92518.16;;;17.66;46.67
20628;BME280;10473;42.734;24.258;2022-10-30T06:31:29;92530.00;;;18.20;47.02
20628;BME280;10473;42.734;24.258;2022-10-30T06:33:59;92534.94;;;18.25;45.79
20628;BME280;10473;42.734;24.258;2022-10-30T06:36:27;92536.16;;;18.61;45.48
20628;BME280;10473;42.734;24.258;2022-10-30T06:38:57;92517.22;;;18.75;45.25
20628;BME280;10473;42.734;24.258;2022-10-30T06:41:31;92536.66;;;19.23;43.26
20628;BME280;10473;42.734;24.258;2022-10-30T06:44:21;92531.28;;;19.53;43.31
20628;BME280;10473;42.734;24.258;2022-10-30T06:46:51;92541.16;;;19.86;41.73
20628;BME280;10473;42.734;24.258;2022-10-30T06:49:19;92533.88;;;20.13;40.31
20628;BME280;10473;42.734;24.258;2022-10-30T06:51:49;92534.19;;;19.92;42.76
20628;BME280;10473;42.734;24.258;2022-10-30T06:54:38;92483.84;;;20.15;40.74
20628;BME280;10473;42.734;24.258;2022-10-30T06:57:37;92489.81;;;19.77;41.56
20628;BME280;10473;42.734;24.258;2022-10-30T07:00:21;92545.09;;;20.31;41.22
20628;BME280;10473;42.734;24.258;2022-10-30T07:03:08;92545.34;;;21.05;40.22
20628;BME280;10473;42.734;24.258;2022-10-30T07:05:36;92533.13;;;21.01;40.08
20628;BME280;10473;42.734;24.258;2022-10-30T07:08:04;92534.56;;;20.86;40.80
20628;BME280;10473;42.734;24.258;2022-10-30T07:10:38;92540.28;;;20.88;40.96
20628;BME280;10473;42.734;24.258;2022-10-30T07:13:23;92532.28;;;21.43;40.05
20628;BME280;10473;42.734;24.258;2022-10-30T07:16:11;92539.00;;;21.90;38.40
20628;BME280;10473;42.734;24.258;2022-10-30T07:18:42;92538.66;;;22.55;37.33
20628;BME280;10473;42.734;24.258;2022-10-30T07:21:15;92542.00;;;22.27;37.60
20628;BME280;10473;42.734;24.258;2022-10-30T07:23:43;92540.31;;;22.33;37.67
20628;BME280;10473;42.734;24.258;2022-10-30T07:26:31;92544.53;;;23.11;37.59
20628;BME280;10473;42.734;24.258;2022-10-30T07:29:14;92527.63;;;23.76;36.54
20628;BME280;10473;42.734;24.258;2022-10-30T07:31:44;92537.13;;;22.70;35.63
20628;BME280;10473;42.734;24.258;2022-10-30T07:34:31;92524.28;;;22.58;35.38
20628;BME280;10473;42.734;24.258;2022-10-30T07:37:38;92526.88;;;23.35;34.97
20628;BME280;10473;42.734;24.258;2022-10-30T07:40:10;92537.41;;;23.99;34.25
20628;BME280;10473;42.734;24.258;2022-10-30T07:42:56;92542.59;;;23.81;33.29
20628;BME280;10473;42.734;24.258;2022-10-30T07:45:47;92539.47;;;24.45;32.25
20628;BME280;10473;42.734;24.258;2022-10-30T07:48:36;92531.34;;;23.95;33.36
20628;BME280;10473;42.734;24.258;2022-10-30T07:51:12;92532.34;;;24.01;33.27
20628;BME280;10473;42.734;24.258;2022-10-30T07:53:41;92532.31;;;24.51;33.61
20628;BME280;10473;42.734;24.258;2022-10-30T07:56:09;92521.69;;;25.24;31.57
20628;BME280;10473;42.734;24.258;2022-10-30T07:59:09;92525.28;;;25.43;31.64
20628;BME280;10473;42.734;24.258;2022-10-30T08:02:00;92523.81;;;25.08;31.74
20628;BME280;10473;42.734;24.258;2022-10-30T08:04:38;92530.59;;;24.91;31.50
20628;BME280;10473;42.734;24.258;2022-10-30T08:07:23;92526.13;;;25.53;31.80
20628;BME280;10473;42.734;24.258;2022-10-30T08:09:51;92527.00;;;26.32;31.17
20628;BME280;10473;42.734;24.258;2022-10-30T08:12:19;92520.47;;;26.60;30.55
20628;BME280;10473;42.734;24.258;2022-10-30T08:14:48;92520.06;;;26.80;29.53
20628;BME280;10473;42.734;24.258;2022-10-30T08:17:17;92526.41;;;26.86;29.59
20628;BME280;10473;42.734;24.258;2022-10-30T08:19:47;92531.59;;;26.53;30.27
20628;BME280;10473;42.734;24.258;2022-10-30T08:22:16;92518.69;;;26.84;30.26
20628;BME280;10473;42.734;24.258;2022-10-30T08:24:48;92516.47;;;26.04;29.58
20628;BME280;10473;42.734;24.258;2022-10-30T08:27:19;92520.72;;;26.14;29.63
20628;BME280;10473;42.734;24.258;2022-10-30T08:29:47;92515.34;;;26.71;29.50
20628;BME280;10473;42.734;24.258;2022-10-30T08:32:14;92504.94;;;27.60;28.25
20628;BME280;10473;42.734;24.258;2022-10-30T08:35:16;92509.09;;;28.47;26.92
20628;BME280;10473;42.734;24.258;2022-10-30T08:37:43;92521.81;;;29.44;26.97
20628;BME280;10473;42.734;24.258;2022-10-30T08:40:11;92513.38;;;29.57;25.42
20628;BME280;10473;42.734;24.258;2022-10-30T08:42:50;92517.38;;;29.47;25.68
20628;BME280;10473;42.734;24.258;2022-10-30T08:45:23;92517.13;;;28.74;26.23
20628;BME280;10473;42.734;24.258;2022-10-30T08:48:18;92497.28;;;28.97;26.28
20628;BME280;10473;42.734;24.258;2022-10-30T08:50:47;92525.16;;;30.50;25.41
20628;BME280;10473;42.734;24.258;2022-10-30T08:53:20;92520.69;;;31.61;25.03
20628;BME280;10473;42.734;24.258;2022-10-30T08:55:54;92509.44;;;30.01;24.82
20628;BME280;10473;42.734;24.258;2022-10-30T08:58:28;92506.22;;;29.21;25.98
20628;BME280;10473;42.734;24.258;2022-10-30T09:00:56;92508.50;;;28.02;26.77
20628;BME280;10473;42.734;24.258;2022-10-30T09:03:42;92505.59;;;29.93;25.84
20628;BME280;10473;42.734;24.258;2022-10-30T09:06:31;92505.28;;;30.35;25.35
20628;BME280;10473;42.734;24.258;2022-10-30T09:09:25;92500.06;;;31.06;24.82
20628;BME280;10473;42.734;24.258;2022-10-30T09:11:56;92502.16;;;31.76;23.33
20628;BME280;10473;42.734;24.258;2022-10-30T09:14:24;92500.31;;;32.19;23.71
20628;BME280;10473;42.734;24.258;2022-10-30T09:16:53;92493.19;;;33.05;23.07
20628;BME280;10473;42.734;24.258;2022-10-30T09:19:21;92498.47;;;33.78;22.21
20628;BME280;10473;42.734;24.258;2022-10-30T09:21:51;92499.34;;;34.50;21.64
20628;BME280;10473;42.734;24.258;2022-10-30T09:24:20;92488.34;;;31.91;23.24
20628;BME280;10473;42.734;24.258;2022-10-30T09:26:48;92471.94;;;31.45;23.80
20628;BME280;10473;42.734;24.258;2022-10-30T09:29:22;92477.03;;;33.24;22.65
20628;BME280;10473;42.734;24.258;2022-10-30T09:31:59;92456.03;;;34.01;21.82
20628;BME280;10473;42.734;24.258;2022-10-30T09:34:30;92487.75;;;35.01;21.50
20628;BME280;10473;42.734;24.258;2022-10-30T09:37:04;92473.09;;;35.91;20.71
20628;BME280;10473;42.734;24.258;2022-10-30T09:39:36;92466.03;;;34.59;21.37
20628;BME280;10473;42.734;24.258;2022-10-30T09:42:26;92460.69;;;32.25;22.61
20628;BME280;10473;42.734;24.258;2022-10-30T09:45:45;92453.69;;;33.67;21.79
20628;BME280;10473;42.734;24.258;2022-10-30T09:48:31;92444.88;;;33.35;21.41
20628;BME280;10473;42.734;24.258;2022-10-30T09:51:21;92459.53;;;34.29;22.18
20628;BME280;10473;42.734;24.258;2022-10-30T09:54:01;92444.53;;;35.83;20.71
20628;BME280;10473;42.734;24.258;2022-10-30T09:56:42;92450.00;;;37.07;20.32
20628;BME280;10473;42.734;24.258;2022-10-30T09:59:23;92443.50;;;36.50;20.06
20628;BME280;10473;42.734;24.258;2022-10-30T10:02:00;92452.78;;;37.86;18.96
20628;BME280;10473;42.734;24.258;2022-10-30T10:04:39;92436.63;;;37.90;18.49
20628;BME280;10473;42.734;24.258;2022-10-30T10:07:19;92444.13;;;39.29;17.89
20628;BME280;10473;42.734;24.258;2022-10-30T10:09:58;92425.78;;;39.13;17.55
20628;BME280;10473;42.734;24.258;2022-10-30T10:12:53;92424.47;;;37.62;18.63
20628;BME280;10473;42.734;24.258;2022-10-30T10:15:31;92432.91;;;37.69;18.33
20628;BME280;10473;42.734;24.258;2022-10-30T10:18:03;92416.75;;;37.73;18.82
20628;BME280;10473;42.734;24.258;2022-10-30T10:20:36;92421.22;;;37.21;19.03
20628;BME280;10473;42.734;24.258;2022-10-30T10:23:13;92423.94;;;38.76;18.44
20628;BME280;10473;42.734;24.258;2022-10-30T10:25:49;92429.59;;;38.84;17.98
20628;BME280;10473;42.734;24.258;2022-10-30T10:31:19;92419.63;;;40.54;17.33
20628;BME280;10473;42.734;24.258;2022-10-30T10:33:59;92418.88;;;39.66;17.43
20628;BME280;10473;42.734;24.258;2022-10-30T10:36:36;92416.41;;;40.22;16.93
20628;BME280;10473;42.734;24.258;2022-10-30T10:39:19;92408.25;;;41.49;16.20
20628;BME280;10473;42.734;24.258;2022-10-30T10:42:08;92373.09;;;36.62;19.10
20628;BME280;10473;42.734;24.258;2022-10-30T10:44:46;92389.78;;;35.52;19.91
20628;BME280;10473;42.734;24.258;2022-10-30T10:47:33;92376.28;;;35.48;20.42
20628;BME280;10473;42.734;24.258;2022-10-30T10:50:14;92382.63;;;36.08;20.24
20628;BME280;10473;42.734;24.258;2022-10-30T10:52:49;92393.22;;;36.33;19.24
20628;BME280;10473;42.734;24.258;2022-10-30T10:55:21;92385.09;;;37.50;18.97
20628;BME280;10473;42.734;24.258;2022-10-30T10:57:58;92382.69;;;36.32;19.03
20628;BME280;10473;42.734;24.258;2022-10-30T11:00:30;92379.03;;;37.15;19.74
20628;BME280;10473;42.734;24.258;2022-10-30T11:03:02;92391.56;;;38.97;18.37
20628;BME280;10473;42.734;24.258;2022-10-30T11:05:33;92387.13;;;37.87;18.18
20628;BME280;10473;42.734;24.258;2022-10-30T11:08:09;92377.16;;;38.28;18.50
20628;BME280;10473;42.734;24.258;2022-10-30T11:10:39;92363.88;;;38.53;17.93
20628;BME280;10473;42.734;24.258;2022-10-30T11:13:10;92384.38;;;39.41;17.75
20628;BME280;10473;42.734;24.258;2022-10-30T11:15:50;92375.31;;;40.28;17.42
20628;BME280;10473;42.734;24.258;2022-10-30T11:18:19;92367.81;;;41.55;16.87
20628;BME280;10473;42.734;24.258;2022-10-30T11:20:55;92364.59;;;41.79;16.14
20628;BME280;10473;42.734;24.258;2022-10-30T11:23:36;92362.22;;;41.98;15.71
20628;BME280;10473;42.734;24.258;2022-10-30T11:26:30;92350.75;;;42.32;15.42
20628;BME280;10473;42.734;24.258;2022-10-30T11:29:04;92360.00;;;43.17;15.25
20628;BME280;10473;42.734;24.258;2022-10-30T11:31:38;92352.28;;;43.40;14.60
20628;BME280;10473;42.734;24.258;2022-10-30T11:34:24;92363.56;;;42.80;15.67
20628;BME280;10473;42.734;24.258;2022-10-30T11:36:54;92358.16;;;42.97;15.10
20628;BME280;10473;42.734;24.258;2022-10-30T11:39:23;92342.22;;;41.57;14.79
20628;BME280;10473;42.734;24.258;2022-10-30T11:41:57;92349.94;;;41.79;16.08
20628;BME280;10473;42.734;24.258;2022-10-30T11:44:31;92311.09;;;37.88;18.08
20628;BME280;10473;42.734;24.258;2022-10-30T11:47:01;92326.31;;;39.30;18.02
20628;BME280;10473;42.734;24.258;2022-10-30T11:49:41;92321.09;;;40.14;16.71
20628;BME280;10473;42.734;24.258;2022-10-30T11:52:12;92317.97;;;36.51;18.67
20628;BME280;10473;42.734;24.258;2022-10-30T11:54:44;92314.38;;;38.05;18.27
20628;BME280;10473;42.734;24.258;2022-10-30T11:57:21;92318.16;;;38.59;18.14
20628;BME280;10473;42.734;24.258;2022-10-30T11:59:53;92320.09;;;38.64;19.43
20628;BME280;10473;42.734;24.258;2022-10-30T12:02:24;92323.59;;;38.78;18.42
20628;BME280;10473;42.734;24.258;2022-10-30T12:04:53;92309.00;;;38.64;18.17
20628;BME280;10473;42.734;24.258;2022-10-30T12:07:26;92316.03;;;38.78;18.25
20628;BME280;10473;42.734;24.258;2022-10-30T12:09:56;92307.09;;;38.72;18.39
20628;BME280;10473;42.734;24.258;2022-10-30T12:12:27;92300.69;;;36.69;19.30
20628;BME280;10473;42.734;24.258;2022-10-30T12:15:08;92298.03;;;36.83;19.16
20628;BME280;10473;42.734;24.258;2022-10-30T12:17:37;92289.94;;;36.84;20.31
20628;BME280;10473;42.734;24.258;2022-10-30T12:20:11;92288.75;;;36.80;19.71
20628;BME280;10473;42.734;24.258;2022-10-30T12:22:40;92286.84;;;35.38;20.50
20628;BME280;10473;42.734;24.258;2022-10-30T12:25:19;92284.94;;;33.97;21.20
20628;BME280;10473;42.734;24.258;2022-10-30T12:27:50;92282.38;;;34.16;21.07
20628;BME280;10473;42.734;24.258;2022-10-30T12:30:27;92280.91;;;32.99;21.40
20628;BME280;10473;42.734;24.258;2022-10-30T12:32:59;92272.72;;;32.46;23.14
20628;BME280;10473;42.734;24.258;2022-10-30T12:35:37;92286.31;;;32.72;23.65
20628;BME280;10473;42.734;24.258;2022-10-30T12:38:10;92286.63;;;31.84;23.70
20628;BME280;10473;42.734;24.258;2022-10-30T12:40:53;92270.22;;;30.71;24.30
20628;BME280;10473;42.734;24.258;2022-10-30T12:43:25;92269.59;;;30.16;25.34
20628;BME280;10473;42.734;24.258;2022-10-30T12:46:05;92277.16;;;30.27;24.77
20628;BME280;10473;42.734;24.258;2022-10-30T12:48:43;92275.25;;;29.78;25.11
20628;BME280;10473;42.734;24.258;2022-10-30T12:51:18;92263.66;;;29.83;25.46
20628;BME280;10473;42.734;24.258;2022-10-30T12:53:50;92259.53;;;29.24;25.28
20628;BME280;10473;42.734;24.258;2022-10-30T12:56:27;92271.59;;;28.74;25.76
20628;BME280;10473;42.734;24.258;2022-10-30T12:59:11;92242.41;;;27.66;26.87
20628;BME280;10473;42.734;24.258;2022-10-30T13:01:49;92232.88;;;27.38;26.35
20628;BME280;10473;42.734;24.258;2022-10-30T13:04:21;92261.56;;;27.48;25.16
20628;BME280;10473;42.734;24.258;2022-10-30T13:06:59;92266.16;;;26.83;25.43
20628;BME280;10473;42.734;24.258;2022-10-30T13:09:36;92258.53;;;26.00;26.50
20628;BME280;10473;42.734;24.258;2022-10-30T13:12:09;92262.00;;;26.37;26.23
20628;BME280;10473;42.734;24.258;2022-10-30T13:14:43;92256.13;;;26.29;26.68
20628;BME280;10473;42.734;24.258;2022-10-30T13:17:15;92256.09;;;25.75;27.10
20628;BME280;10473;42.734;24.258;2022-10-30T13:19:48;92242.44;;;25.48;27.11
20628;BME280;10473;42.734;24.258;2022-10-30T13:22:23;92247.28;;;25.44;27.48
20628;BME280;10473;42.734;24.258;2022-10-30T13:24:57;92233.38;;;25.33;27.67
20628;BME280;10473;42.734;24.258;2022-10-30T13:27:34;92253.66;;;25.19;27.96
20628;BME280;10473;42.734;24.258;2022-10-30T13:30:10;92244.25;;;25.42;27.34
20628;BME280;10473;42.734;24.258;2022-10-30T13:32:51;92249.41;;;25.49;27.50
20628;BME280;10473;42.734;24.258;2022-10-30T13:35:29;92227.16;;;25.23;27.11